Greater Rochester International Airport
KROC : now visible

Airfield :











YOU CAN JOIN US ON...

 
LOGIN :

Register | Disclaimer

   EN    FR    IT 

 









Legend :    VFR   Marginal VFR   IFR   Intensive IFR   Very Intensive IFR
Visi :
Ceiling :
>= 8 km
>= 3000ft
5 to 8 km
1000 to 3000 ft
1500m to 5 km
500 to 1000 ft
800 to 1500m
200 to 500 ft
< 800m
< 200 ft
Symbols :   Thunderstorms  Fog  Heavy snow  Heavy precipitations  Wind > 20 kt






- Airport Elevation : 559 ft
- IATA code : ROC


KROC - Greater Rochester International

CURRENT METAR :
  • 221054Z 27010KT 9SM -SN FEW020 BKN060 OVC075 M02/M03 A2987 RMK AO2 SLP126 P0000 T10171033

EXPIRED METARs :
  • 220954Z 27011KT 9SM -SN OVC055 M02/M04 A2987 RMK AO2 SLP125 P0000 T10221039
  • 220854Z 27008KT 9SM -SN BKN070 BKN100 BKN250 M03/M04 A2987 RMK AO2 SLP124 P0001 60004 T10281044 56002

TAF KROC
Valid from the 22 at 12:00 until the 23 at 12:00 UTC


221132Z 2212/2312 28012KT P6SM -SHSN FEW020 OVC050
FM221400 30015G25KT P6SM VCSH SCT020 BKN050
FM222300 28010G23KT P6SM VCSH SCT020 BKN050
FM230200 26008KT P6SM FEW050 SCT250
FM230500 25010G16KT P6SM FEW250
KZOB FIR / North America



MET'MAP, your aeronautical weather chart ! - Copyright ORBIFLY December 2007 - Disclaimer

ORBIFLY MET'MAP TEAM :

Programming & Development : Alexandra Zaïnal
Concept & original design : Baudouin d'Aumeries
Assistance for programming : Marc-Olivier Méhu
Technical & hardware support : Manuel Goepfert

Contact : metmap@orbifly.com




SOURCES & CREDITS :

   NOAA       Earth
Advisory